createdAt,value
2022-11-25T00:01:05.264Z,104.60
2022-11-25T00:03:32.443Z,102.83
2022-11-25T00:06:08.351Z,98.03
2022-11-25T00:08:35.441Z,101.97
2022-11-25T00:11:02.996Z,91.47
2022-11-25T00:13:30.149Z,77.80
2022-11-25T00:15:57.233Z,50.13
2022-11-25T00:18:24.331Z,41.37
2022-11-25T00:20:51.449Z,48.40
2022-11-25T00:23:18.533Z,48.40
2022-11-25T00:25:45.617Z,47.07
2022-11-25T00:28:12.758Z,47.90
2022-11-25T00:30:39.879Z,49.30
2022-11-25T00:33:06.988Z,56.90
2022-11-25T00:35:35.536Z,50.33
2022-11-25T00:38:02.627Z,55.97
2022-11-25T00:40:29.722Z,58.90
2022-11-25T00:43:15.695Z,57.37
2022-11-25T00:45:42.915Z,56.30
2022-11-25T00:48:10.032Z,51.27
2022-11-25T00:50:37.153Z,42.47
2022-11-25T00:53:04.279Z,38.83
2022-11-25T00:55:51.368Z,35.27
2022-11-25T00:58:18.500Z,37.80
2022-11-25T01:00:45.697Z,34.47
2022-11-25T01:03:12.858Z,29.90
2022-11-25T01:05:39.952Z,24.97
2022-11-25T01:08:07.078Z,21.57
2022-11-25T01:10:34.321Z,28.70
2022-11-25T01:13:01.439Z,51.60
2022-11-25T01:15:28.563Z,37.13
2022-11-25T01:17:55.685Z,33.10
2022-11-25T01:20:22.839Z,50.03
2022-11-25T01:22:50.250Z,52.50
2022-11-25T01:25:17.375Z,46.80
2022-11-25T01:27:44.476Z,45.20
2022-11-25T01:30:11.736Z,35.03
2022-11-25T01:32:38.870Z,25.83
2022-11-25T01:35:06.301Z,17.23
2022-11-25T01:37:33.446Z,16.33
2022-11-25T01:40:00.561Z,21.70
2022-11-25T01:42:29.510Z,33.07
2022-11-25T01:45:15.524Z,41.27
2022-11-25T01:47:42.627Z,45.43
2022-11-25T01:50:11.006Z,52.67
2022-11-25T01:52:39.235Z,51.57
2022-11-25T01:55:08.144Z,49.10
2022-11-25T01:57:39.548Z,50.37
2022-11-25T02:00:07.771Z,50.60
2022-11-25T02:02:34.913Z,50.13
2022-11-25T02:05:07.681Z,49.67
2022-11-25T02:07:36.363Z,43.30
2022-11-25T02:10:04.001Z,40.37
2022-11-25T02:12:31.211Z,36.57
2022-11-25T02:14:58.637Z,31.00
2022-11-25T02:17:25.742Z,29.10
2022-11-25T02:20:06.305Z,26.10
2022-11-25T02:22:33.406Z,27.17
2022-11-25T02:25:03.487Z,28.37
2022-11-25T02:27:30.625Z,32.97
2022-11-25T02:29:57.747Z,42.50
2022-11-25T02:32:24.878Z,42.80
2022-11-25T02:34:52.032Z,44.83
2022-11-25T02:37:19.880Z,43.77
2022-11-25T02:39:46.989Z,41.53
2022-11-25T02:42:14.128Z,44.10
2022-11-25T02:44:41.238Z,42.80
2022-11-25T02:47:08.320Z,40.27
2022-11-25T02:49:35.444Z,42.63
2022-11-25T02:52:02.556Z,42.50
2022-11-25T02:54:29.664Z,48.87
2022-11-25T02:56:56.835Z,58.87
2022-11-25T02:59:23.926Z,56.17
2022-11-25T03:01:51.112Z,56.37
2022-11-25T03:04:18.325Z,56.37
2022-11-25T03:06:45.470Z,57.07
2022-11-25T03:09:12.560Z,55.90
2022-11-25T03:11:58.450Z,55.10
2022-11-25T03:14:25.554Z,52.67
2022-11-25T03:16:52.747Z,54.33
2022-11-25T03:19:19.958Z,54.60
2022-11-25T03:21:47.055Z,53.90
2022-11-25T03:24:14.145Z,52.13
2022-11-25T03:26:41.274Z,50.83
2022-11-25T03:29:08.407Z,49.77
2022-11-25T03:31:35.557Z,51.13
2022-11-25T03:34:02.714Z,47.53
2022-11-25T03:36:29.836Z,47.17
2022-11-25T03:38:56.955Z,49.10
2022-11-25T03:41:24.107Z,49.47
2022-11-25T03:43:51.212Z,45.17
2022-11-25T03:46:18.767Z,48.97
2022-11-25T03:48:45.933Z,47.67
2022-11-25T03:51:13.035Z,45.23
2022-11-25T03:53:40.300Z,45.83
2022-11-25T03:56:07.599Z,43.33
2022-11-25T03:58:34.723Z,43.57
2022-11-25T04:01:02.318Z,43.30
2022-11-25T04:03:29.663Z,43.00
2022-11-25T04:05:56.766Z,45.50
2022-11-25T04:08:23.933Z,43.40
2022-11-25T04:10:51.196Z,42.33
2022-11-25T04:13:18.421Z,41.13
2022-11-25T04:15:46.941Z,42.00
2022-11-25T04:18:17.496Z,40.47
2022-11-25T04:20:44.662Z,42.00
2022-11-25T04:23:11.799Z,41.33
2022-11-25T04:25:39.001Z,42.60
2022-11-25T04:28:06.347Z,42.70
2022-11-25T04:30:33.567Z,39.50
2022-11-25T04:33:01.260Z,38.83
2022-11-25T04:35:28.404Z,40.70
2022-11-25T04:37:55.536Z,43.70
2022-11-25T04:40:22.709Z,47.43
2022-11-25T04:42:49.840Z,52.03
2022-11-25T04:45:24.748Z,50.73
2022-11-25T04:47:52.042Z,42.63
2022-11-25T04:50:20.016Z,44.13
2022-11-25T04:52:47.132Z,40.10
2022-11-25T04:55:14.317Z,31.37
2022-11-25T04:57:41.414Z,34.67
2022-11-25T05:00:09.393Z,30.57
2022-11-25T05:02:36.582Z,23.63
2022-11-25T05:05:03.922Z,25.50
2022-11-25T05:07:31.129Z,24.80
2022-11-25T05:09:58.432Z,23.53
2022-11-25T05:12:26.587Z,27.37
2022-11-25T05:14:53.753Z,30.33
2022-11-25T05:17:21.875Z,31.43
2022-11-25T05:19:49.437Z,33.33
2022-11-25T05:22:17.514Z,34.73
2022-11-25T05:24:44.658Z,32.07
2022-11-25T05:27:11.769Z,33.07
2022-11-25T05:29:38.873Z,35.80
2022-11-25T05:32:06.327Z,36.83
2022-11-25T05:34:33.702Z,30.27
2022-11-25T05:37:01.016Z,27.87
2022-11-25T05:39:28.167Z,22.20
2022-11-25T05:41:55.264Z,27.10
2022-11-25T05:44:34.150Z,55.40
2022-11-25T05:47:01.311Z,59.10
2022-11-25T05:49:28.406Z,52.20
2022-11-25T05:51:55.497Z,63.03
2022-11-25T05:54:22.629Z,52.93
2022-11-25T05:56:49.774Z,65.23
2022-11-25T05:59:16.926Z,68.40
2022-11-25T06:01:44.048Z,79.90
2022-11-25T06:04:11.613Z,94.53
2022-11-25T06:06:38.939Z,100.50
2022-11-25T06:09:06.066Z,102.13
2022-11-25T06:11:33.211Z,100.20
2022-11-25T06:14:00.360Z,97.63
2022-11-25T06:16:28.322Z,94.93
2022-11-25T06:18:55.473Z,95.93
2022-11-25T06:21:22.659Z,82.30
2022-11-25T06:23:49.812Z,60.43
2022-11-25T06:26:18.227Z,63.73
2022-11-25T06:28:45.417Z,45.93
2022-11-25T06:31:16.538Z,47.50
2022-11-25T06:33:43.738Z,43.47
2022-11-25T06:36:16.994Z,44.00
2022-11-25T06:38:44.824Z,48.90
2022-11-25T06:41:11.944Z,48.43
2022-11-25T06:43:39.162Z,57.53
2022-11-25T06:46:07.081Z,45.83
2022-11-25T06:48:34.335Z,69.50
2022-11-25T06:51:01.996Z,63.77
2022-11-25T06:53:29.154Z,64.23
2022-11-25T06:56:11.596Z,62.37
2022-11-25T06:58:39.045Z,57.87
2022-11-25T07:01:07.292Z,55.73
2022-11-25T07:03:34.994Z,47.27
2022-11-25T07:06:02.111Z,43.47
2022-11-25T07:08:33.726Z,46.63
2022-11-25T07:11:20.176Z,44.50
2022-11-25T07:13:47.360Z,47.80
2022-11-25T07:16:14.661Z,46.33
2022-11-25T07:18:41.874Z,51.33
2022-11-25T07:21:08.976Z,53.07
2022-11-25T07:23:36.249Z,52.63
2022-11-25T07:26:04.258Z,43.43
2022-11-25T07:28:31.390Z,45.03
2022-11-25T07:33:53.186Z,46.40
2022-11-25T07:36:20.446Z,48.37
2022-11-25T07:38:47.557Z,43.63
2022-11-25T07:41:15.460Z,51.80
2022-11-25T07:43:44.982Z,55.80
2022-11-25T07:46:26.446Z,54.23
2022-11-25T07:48:54.774Z,67.07
2022-11-25T07:51:22.901Z,71.47
2022-11-25T07:53:50.092Z,78.80
2022-11-25T07:56:17.570Z,83.93
2022-11-25T07:58:46.212Z,87.17
2022-11-25T08:01:13.757Z,88.77
2022-11-25T08:03:41.580Z,96.83
2022-11-25T08:06:09.448Z,99.37
2022-11-25T08:08:36.694Z,94.37
2022-11-25T08:11:07.879Z,87.90
2022-11-25T08:13:34.986Z,76.33
2022-11-25T08:16:02.231Z,77.37
2022-11-25T08:18:29.544Z,101.77
2022-11-25T08:21:04.721Z,105.17
2022-11-25T08:23:32.365Z,93.87
2022-11-25T08:26:00.130Z,82.50
2022-11-25T08:28:27.230Z,75.10
2022-11-25T08:30:54.431Z,76.70
2022-11-25T08:33:21.551Z,76.73
2022-11-25T08:35:54.341Z,83.93
2022-11-25T08:38:21.459Z,47.87
2022-11-25T08:40:48.562Z,36.73
2022-11-25T08:43:15.688Z,41.73
2022-11-25T08:45:42.791Z,29.43
2022-11-25T08:48:09.941Z,27.13
2022-11-25T08:50:37.093Z,32.17
2022-11-25T08:53:04.206Z,30.27
2022-11-25T08:55:32.658Z,28.07
2022-11-25T08:57:59.802Z,26.80
2022-11-25T09:00:26.915Z,22.20
2022-11-25T09:02:54.077Z,43.77
2022-11-25T09:05:21.249Z,45.70
2022-11-25T09:07:48.373Z,48.37
2022-11-25T09:10:17.640Z,59.17
2022-11-25T09:12:44.798Z,31.37
2022-11-25T09:15:12.209Z,24.97
2022-11-25T09:17:39.365Z,23.20
2022-11-25T09:20:06.842Z,19.45
2022-11-25T09:22:33.965Z,18.08
2022-11-25T09:25:01.112Z,18.25
2022-11-25T09:27:28.284Z,17.10
2022-11-25T09:29:55.425Z,17.10
2022-11-25T09:32:22.515Z,15.82
2022-11-25T09:34:49.635Z,13.70
2022-11-25T09:37:16.816Z,13.25
2022-11-25T09:39:43.923Z,13.18
2022-11-25T09:42:32.920Z,13.73
2022-11-25T09:45:30.507Z,10.45
2022-11-25T09:48:01.757Z,10.40
2022-11-25T09:50:31.685Z,8.95
2022-11-25T09:53:19.137Z,8.85
2022-11-25T09:55:46.676Z,9.02
2022-11-25T09:58:32.633Z,10.77
2022-11-25T10:00:59.811Z,12.73
2022-11-25T10:03:27.018Z,9.10
2022-11-25T10:06:07.979Z,8.50
2022-11-25T10:08:44.709Z,6.90
2022-11-25T10:11:11.826Z,7.60
2022-11-25T10:13:52.681Z,7.95
2022-11-25T10:16:36.581Z,8.55
2022-11-25T10:19:06.971Z,7.85
2022-11-25T10:21:34.092Z,7.82
2022-11-25T10:24:01.220Z,7.32
2022-11-25T10:26:30.717Z,7.55
2022-11-25T10:29:00.818Z,7.38
2022-11-25T10:31:29.982Z,7.70
2022-11-25T10:33:58.536Z,5.82
2022-11-25T10:36:33.228Z,5.97
2022-11-25T10:39:00.396Z,5.88
2022-11-25T10:41:28.286Z,6.03
2022-11-25T10:43:55.407Z,6.72
2022-11-25T10:47:13.069Z,6.70
2022-11-25T10:49:52.528Z,5.70
2022-11-25T10:52:21.235Z,6.25
2022-11-25T10:54:58.458Z,6.25
2022-11-25T10:57:27.880Z,9.18
2022-11-25T10:59:58.820Z,6.90
2022-11-25T11:02:37.958Z,6.30
2022-11-25T11:05:11.237Z,6.28
2022-11-25T11:07:39.232Z,6.60
2022-11-25T11:10:15.832Z,6.53
2022-11-25T11:12:52.095Z,8.38
2022-11-25T11:15:23.050Z,9.25
2022-11-25T11:17:50.195Z,9.73
2022-11-25T11:20:20.548Z,10.48
2022-11-25T11:22:52.882Z,11.50
2022-11-25T11:25:27.022Z,11.65
2022-11-25T11:27:54.301Z,13.43
2022-11-25T11:30:23.318Z,12.75
2022-11-25T11:32:56.719Z,12.85
2022-11-25T11:35:42.771Z,13.77
2022-11-25T11:38:20.318Z,11.80
2022-11-25T11:40:49.617Z,10.43
2022-11-25T11:43:23.053Z,10.68
2022-11-25T11:46:19.487Z,11.05
2022-11-25T11:48:53.432Z,11.35
2022-11-25T11:51:31.859Z,10.43
2022-11-25T11:53:58.972Z,11.60
2022-11-25T11:56:41.350Z,11.05
2022-11-25T11:59:27.269Z,11.43
2022-11-25T12:01:54.430Z,11.82
2022-11-25T12:04:40.592Z,14.52
2022-11-25T12:07:19.419Z,14.02
2022-11-25T12:09:51.089Z,13.02
2022-11-25T12:12:19.328Z,14.77
2022-11-25T12:14:47.758Z,16.15
2022-11-25T12:17:17.050Z,11.50
2022-11-25T12:19:45.312Z,12.82
2022-11-25T12:22:15.411Z,21.95
2022-11-25T12:25:02.808Z,12.90
2022-11-25T12:27:38.817Z,13.00
2022-11-25T12:30:07.265Z,11.80
2022-11-25T12:32:34.369Z,13.23
2022-11-25T12:35:10.455Z,20.25
2022-11-25T12:37:47.686Z,15.65
2022-11-25T12:40:15.869Z,15.68
2022-11-25T12:42:42.963Z,11.95
2022-11-25T12:45:15.423Z,12.55
2022-11-25T12:47:42.559Z,13.60
2022-11-25T12:50:14.156Z,12.95
2022-11-25T12:52:53.331Z,11.95
2022-11-25T12:55:21.596Z,12.02
2022-11-25T12:57:49.376Z,12.75
2022-11-25T13:00:42.504Z,13.75
2022-11-25T13:03:25.098Z,17.58
2022-11-25T13:05:58.183Z,15.77
2022-11-25T13:08:43.793Z,14.40
2022-11-25T13:11:23.317Z,12.85
2022-11-25T13:13:53.755Z,12.63
2022-11-25T13:16:21.510Z,12.85
2022-11-25T13:18:49.420Z,12.60
2022-11-25T13:21:17.041Z,12.38
2022-11-25T13:23:53.529Z,13.15
2022-11-25T13:26:29.798Z,11.35
2022-11-25T13:28:57.222Z,13.00
2022-11-25T13:31:25.254Z,13.77
2022-11-25T13:33:56.729Z,17.92
2022-11-25T13:36:24.384Z,18.00
2022-11-25T13:38:51.476Z,17.73
2022-11-25T13:41:22.117Z,17.13
2022-11-25T13:43:52.970Z,17.30
2022-11-25T13:46:38.640Z,15.13
2022-11-25T13:49:21.596Z,13.75
2022-11-25T13:51:52.151Z,14.52
2022-11-25T13:54:23.513Z,16.30
2022-11-25T13:57:09.527Z,15.20
2022-11-25T13:59:48.754Z,11.05
2022-11-25T14:02:28.251Z,12.90
2022-11-25T14:04:58.403Z,11.95
2022-11-25T14:07:36.180Z,11.85
2022-11-25T14:10:03.370Z,13.23
2022-11-25T14:12:42.936Z,15.32
2022-11-25T14:15:25.278Z,15.57
2022-11-25T14:17:55.234Z,17.13
2022-11-25T14:20:37.292Z,26.58
2022-11-25T14:23:23.018Z,24.05
2022-11-25T14:26:04.117Z,22.30
2022-11-25T14:28:36.952Z,20.60
2022-11-25T14:31:05.517Z,28.48
2022-11-25T14:33:58.994Z,20.40
2022-11-25T14:36:27.654Z,23.15
2022-11-25T14:38:55.660Z,26.25
2022-11-25T14:41:26.621Z,24.92
2022-11-25T14:43:55.021Z,26.35
2022-11-25T14:46:25.597Z,32.55
2022-11-25T14:48:59.546Z,35.00
2022-11-25T14:51:27.228Z,39.78
2022-11-25T14:53:54.469Z,67.05
2022-11-25T14:56:28.709Z,66.47
2022-11-25T14:58:56.158Z,58.78
2022-11-25T15:01:27.052Z,54.60
2022-11-25T15:04:17.537Z,36.28
2022-11-25T15:06:48.847Z,40.47
2022-11-25T15:09:35.042Z,34.50
2022-11-25T15:12:06.018Z,31.42
2022-11-25T15:14:34.293Z,30.45
2022-11-25T15:17:01.507Z,29.50
2022-11-25T15:19:33.387Z,27.73
2022-11-25T15:22:22.337Z,27.30
2022-11-25T15:24:54.714Z,30.15
2022-11-25T15:27:25.248Z,32.53
2022-11-25T15:29:52.427Z,35.63
2022-11-25T15:32:29.621Z,40.92
2022-11-25T15:34:57.070Z,45.30
2022-11-25T15:37:24.244Z,57.45
2022-11-25T15:39:51.853Z,54.42
2022-11-25T15:42:23.197Z,46.70
2022-11-25T15:44:54.098Z,48.05
2022-11-25T15:47:24.324Z,50.33
2022-11-25T15:49:54.261Z,58.20
2022-11-25T15:52:21.353Z,59.03
2022-11-25T15:54:51.997Z,67.57
2022-11-25T15:57:19.139Z,54.60
2022-11-25T15:59:46.241Z,50.97
2022-11-25T16:02:32.186Z,48.65
2022-11-25T16:05:14.521Z,41.05
2022-11-25T16:07:50.628Z,52.45
2022-11-25T16:10:18.034Z,56.22
2022-11-25T16:12:45.139Z,47.07
2022-11-25T16:15:18.224Z,48.10
2022-11-25T16:17:45.365Z,44.95
2022-11-25T16:20:27.500Z,62.95
2022-11-25T16:22:54.618Z,56.17
2022-11-25T16:25:21.749Z,121.13
2022-11-25T16:27:48.876Z,92.55
2022-11-25T16:30:19.533Z,76.40
2022-11-25T16:32:46.646Z,72.17
2022-11-25T16:35:15.231Z,68.10
2022-11-25T16:37:47.153Z,89.63
2022-11-25T16:40:16.768Z,69.60
2022-11-25T16:42:46.647Z,62.87
2022-11-25T16:45:18.789Z,90.00
2022-11-25T16:47:45.885Z,103.40
2022-11-25T16:50:16.193Z,110.43
2022-11-25T16:52:43.356Z,94.03
2022-11-25T16:55:10.462Z,63.43
2022-11-25T16:57:37.697Z,49.33
2022-11-25T17:00:08.524Z,46.22
2022-11-25T17:02:35.935Z,46.45
2022-11-25T17:05:32.350Z,54.95
2022-11-25T17:07:59.462Z,65.60
2022-11-25T17:10:26.718Z,61.03
2022-11-25T17:12:53.923Z,71.22
2022-11-25T17:15:22.036Z,74.77
2022-11-25T17:17:49.228Z,99.82
2022-11-25T17:20:17.132Z,121.17
2022-11-25T17:22:44.212Z,130.70
2022-11-25T17:25:14.304Z,142.90
2022-11-25T17:27:41.439Z,161.73
2022-11-25T17:30:09.266Z,126.93
2022-11-25T17:32:36.348Z,99.83
2022-11-25T17:35:03.517Z,53.63
2022-11-25T17:37:31.732Z,59.27
2022-11-25T17:39:59.042Z,70.97
2022-11-25T17:42:30.542Z,118.27
2022-11-25T17:44:57.746Z,122.40
2022-11-25T17:47:24.885Z,165.67
2022-11-25T17:49:52.134Z,199.77
2022-11-25T17:52:19.314Z,150.13
2022-11-25T17:54:46.411Z,130.57
2022-11-25T17:57:15.162Z,108.27
2022-11-25T17:59:42.249Z,110.63
2022-11-25T18:02:16.775Z,98.63
2022-11-25T18:04:43.928Z,93.20
2022-11-25T18:07:11.195Z,82.47
2022-11-25T18:09:38.359Z,78.00
2022-11-25T18:12:08.157Z,76.63
2022-11-25T18:14:36.838Z,68.33
2022-11-25T18:17:04.968Z,65.57
2022-11-25T18:19:32.877Z,92.20
2022-11-25T18:22:13.677Z,68.13
2022-11-25T18:24:41.257Z,58.90
2022-11-25T18:27:10.030Z,42.50
2022-11-25T18:29:37.188Z,38.93
2022-11-25T18:32:05.642Z,39.73
2022-11-25T18:34:32.761Z,42.50
2022-11-25T18:37:00.972Z,42.77
2022-11-25T18:39:28.080Z,40.80
2022-11-25T18:41:58.208Z,44.13
2022-11-25T18:44:37.402Z,43.60
2022-11-25T18:47:05.516Z,46.17
2022-11-25T18:49:32.655Z,48.63
2022-11-25T18:51:59.755Z,46.53
2022-11-25T18:54:26.829Z,49.40
2022-11-25T18:56:53.937Z,69.23
2022-11-25T18:59:26.265Z,52.50
2022-11-25T19:01:53.437Z,45.47
2022-11-25T19:04:20.583Z,49.53
2022-11-25T19:06:47.676Z,43.03
2022-11-25T19:09:14.794Z,44.67
2022-11-25T19:11:48.854Z,42.33
2022-11-25T19:14:29.044Z,43.87
2022-11-25T19:16:56.475Z,44.20
2022-11-25T19:19:23.686Z,52.40
2022-11-25T19:21:50.762Z,51.70
2022-11-25T19:24:18.075Z,61.17
2022-11-25T19:26:48.936Z,69.33
2022-11-25T19:29:20.041Z,66.47
2022-11-25T19:31:47.424Z,69.73
2022-11-25T19:34:23.824Z,60.95
2022-11-25T19:36:51.972Z,61.60
2022-11-25T19:39:19.142Z,70.50
2022-11-25T19:41:46.307Z,73.73
2022-11-25T19:44:14.367Z,68.22
2022-11-25T19:47:13.027Z,58.93
2022-11-25T19:49:30.939Z,55.92
2022-11-25T19:51:58.005Z,56.13
2022-11-25T19:54:25.086Z,57.57
2022-11-25T19:56:52.249Z,58.43
2022-11-25T19:59:19.320Z,55.53
2022-11-25T20:01:46.890Z,59.70
2022-11-25T20:04:17.259Z,59.00
2022-11-25T20:06:44.349Z,59.63
2022-11-25T20:09:12.263Z,58.90
2022-11-25T20:11:39.441Z,65.82
2022-11-25T20:14:06.529Z,65.78
2022-11-25T20:16:35.417Z,58.22
2022-11-25T20:19:02.565Z,62.97
2022-11-25T20:21:33.395Z,57.57
2022-11-25T20:24:00.580Z,65.37
2022-11-25T20:26:29.155Z,62.07
2022-11-25T20:28:56.316Z,71.77
2022-11-25T20:31:27.374Z,70.38
2022-11-25T20:33:57.256Z,71.90
2022-11-25T20:36:25.441Z,64.57
2022-11-25T20:38:54.476Z,65.77
2022-11-25T20:41:27.276Z,75.33
2022-11-25T20:43:54.953Z,79.67
2022-11-25T20:46:23.166Z,88.50
2022-11-25T20:48:52.311Z,79.90
2022-11-25T20:51:20.813Z,78.30
2022-11-25T20:53:48.867Z,70.57
2022-11-25T20:56:19.616Z,73.83
2022-11-25T20:58:46.795Z,75.47
2022-11-25T21:01:18.958Z,72.23
2022-11-25T21:03:46.206Z,71.50
2022-11-25T21:06:17.963Z,89.70
2022-11-25T21:08:47.569Z,95.87
2022-11-25T21:11:14.661Z,114.53
2022-11-25T21:13:41.742Z,99.47
2022-11-25T21:16:08.888Z,105.30
2022-11-25T21:18:35.962Z,84.43
2022-11-25T21:21:03.073Z,75.03
2022-11-25T21:23:32.642Z,93.03
2022-11-25T21:26:26.187Z,84.20
2022-11-25T21:28:53.514Z,74.10
2022-11-25T21:31:21.644Z,80.03
2022-11-25T21:33:48.939Z,82.37
2022-11-25T21:36:19.581Z,79.40
2022-11-25T21:38:46.942Z,84.87
2022-11-25T21:41:14.047Z,89.43
2022-11-25T21:43:42.600Z,79.77
2022-11-25T21:46:12.732Z,73.43
2022-11-25T21:48:39.893Z,87.10
2022-11-25T21:51:07.098Z,79.57
2022-11-25T21:53:37.321Z,75.73
2022-11-25T21:56:04.960Z,67.47
2022-11-25T21:58:32.308Z,74.30
2022-11-25T22:01:00.225Z,75.90
2022-11-25T22:03:29.107Z,76.63
2022-11-25T22:05:56.309Z,79.70
2022-11-25T22:08:23.896Z,67.67
2022-11-25T22:10:51.431Z,71.20
2022-11-25T22:13:26.376Z,70.60
2022-11-25T22:15:56.486Z,66.20
2022-11-25T22:18:30.645Z,63.47
2022-11-25T22:20:57.886Z,72.43
2022-11-25T22:23:25.197Z,71.57
2022-11-25T22:25:52.447Z,63.80
2022-11-25T22:28:20.946Z,60.23
2022-11-25T22:30:51.744Z,55.43
2022-11-25T22:33:19.011Z,43.93
2022-11-25T22:35:46.172Z,64.10
2022-11-25T22:38:13.940Z,63.23
2022-11-25T22:40:41.994Z,61.60
2022-11-25T22:43:09.857Z,59.27
2022-11-25T22:45:36.997Z,56.70
2022-11-25T22:48:04.620Z,45.73
2022-11-25T22:50:32.003Z,41.87
2022-11-25T22:52:59.152Z,34.87
2022-11-25T22:55:29.940Z,36.80
2022-11-25T22:57:57.723Z,52.57
2022-11-25T23:00:26.025Z,41.10
2022-11-25T23:02:53.654Z,48.07
2022-11-25T23:05:27.622Z,43.30
2022-11-25T23:07:57.963Z,46.40
2022-11-25T23:10:25.966Z,67.80
2022-11-25T23:12:53.125Z,56.07
2022-11-25T23:15:21.249Z,59.47
2022-11-25T23:17:51.483Z,58.53
2022-11-25T23:20:21.042Z,53.13
2022-11-25T23:22:48.198Z,36.23
2022-11-25T23:25:17.005Z,26.47
2022-11-25T23:27:44.132Z,25.67
2022-11-25T23:30:21.331Z,24.10
2022-11-25T23:32:49.465Z,23.00
2022-11-25T23:35:17.297Z,25.50
2022-11-25T23:37:44.536Z,25.20
2022-11-25T23:40:15.321Z,23.63
2022-11-25T23:42:42.407Z,22.60
2022-11-25T23:45:10.150Z,19.80
2022-11-25T23:47:37.234Z,18.33
2022-11-25T23:50:04.343Z,17.20
2022-11-25T23:52:31.484Z,17.30
2022-11-25T23:54:58.558Z,17.50
2022-11-25T23:57:27.189Z,18.33
2022-11-25T23:59:54.298Z,19.27
